createdAt,value
2018-11-04T00:00:26.268Z,6.63
2018-11-04T00:02:56.986Z,7.77
2018-11-04T00:05:25.938Z,8.10
2018-11-04T00:07:53.296Z,16.67
2018-11-04T00:10:20.716Z,34.37
2018-11-04T00:12:48.085Z,21.40
2018-11-04T00:15:15.467Z,17.53
2018-11-04T00:17:42.803Z,16.43
2018-11-04T00:20:11.726Z,17.20
2018-11-04T00:22:39.075Z,15.67
2018-11-04T00:25:06.990Z,33.93
2018-11-04T00:27:34.325Z,13.67
2018-11-04T00:30:01.666Z,16.10
2018-11-04T00:32:29.016Z,15.93
2018-11-04T00:34:56.374Z,12.73
2018-11-04T00:37:23.714Z,14.63
2018-11-04T00:39:51.059Z,15.50
2018-11-04T00:42:18.420Z,15.20
2018-11-04T00:44:45.758Z,13.37
2018-11-04T00:47:13.119Z,15.27
2018-11-04T00:49:40.437Z,9.97
2018-11-04T00:52:07.815Z,12.57
2018-11-04T00:54:35.150Z,11.47
2018-11-04T00:57:02.505Z,18.33
2018-11-04T00:59:29.957Z,14.07
2018-11-04T01:01:57.328Z,10.30
2018-11-04T01:04:24.662Z,16.00
2018-11-04T01:06:52.022Z,11.28
2018-11-04T01:09:19.474Z,14.43
2018-11-04T01:11:46.741Z,20.13
2018-11-04T01:14:14.091Z,12.47
2018-11-04T01:16:41.450Z,9.27
2018-11-04T01:19:09.957Z,12.70
2018-11-04T01:21:37.300Z,8.20
2018-11-04T01:24:04.734Z,13.83
2018-11-04T01:26:32.099Z,20.63
2018-11-04T01:28:59.471Z,18.53
2018-11-04T01:31:26.847Z,7.37
2018-11-04T01:33:54.162Z,8.17
2018-11-04T01:36:21.517Z,9.63
2018-11-04T01:38:48.866Z,9.37
2018-11-04T01:41:16.219Z,12.03
2018-11-04T01:43:43.550Z,9.17
2018-11-04T01:46:10.984Z,11.43
2018-11-04T01:48:38.343Z,9.70
2018-11-04T01:51:05.817Z,9.97
2018-11-04T01:53:33.169Z,14.00
2018-11-04T01:56:00.520Z,8.97
2018-11-04T01:58:27.834Z,8.17
2018-11-04T02:00:55.182Z,7.27
2018-11-04T02:03:23.537Z,7.00
2018-11-04T02:05:52.070Z,8.73
2018-11-04T02:08:20.441Z,7.90
2018-11-04T02:10:47.809Z,13.30
2018-11-04T02:13:15.151Z,11.33
2018-11-04T02:15:43.937Z,11.60
2018-11-04T02:18:11.263Z,10.23
2018-11-04T02:20:38.605Z,13.90
2018-11-04T02:23:05.965Z,6.70
2018-11-04T02:25:33.289Z,7.77
2018-11-04T02:28:00.663Z,15.07
2018-11-04T02:30:27.981Z,7.47
2018-11-04T02:32:55.334Z,8.33
2018-11-04T02:35:22.672Z,7.03
2018-11-04T02:37:50.021Z,10.67
2018-11-04T02:40:17.371Z,9.10
2018-11-04T02:42:44.751Z,10.57
2018-11-04T02:45:12.088Z,8.57
2018-11-04T02:47:39.981Z,9.10
2018-11-04T02:50:07.641Z,8.13
2018-11-04T02:52:35.029Z,7.90
2018-11-04T02:55:02.425Z,7.57
2018-11-04T02:57:29.774Z,6.00
2018-11-04T02:59:57.119Z,8.30
2018-11-04T03:02:24.465Z,11.80
2018-11-04T03:04:51.823Z,7.17
2018-11-04T03:07:19.159Z,5.57
2018-11-04T03:09:46.504Z,10.43
2018-11-04T03:12:13.846Z,7.37
2018-11-04T03:14:41.224Z,6.20
2018-11-04T03:17:08.587Z,7.67
2018-11-04T03:19:35.955Z,6.30
2018-11-04T03:22:03.353Z,5.50
2018-11-04T03:24:30.726Z,6.40
2018-11-04T03:26:58.066Z,8.63
2018-11-04T03:29:25.429Z,6.03
2018-11-04T03:31:52.807Z,7.30
2018-11-04T03:34:20.160Z,6.07
2018-11-04T03:36:47.518Z,4.73
2018-11-04T03:39:14.843Z,5.17
2018-11-04T03:41:42.874Z,6.00
2018-11-04T03:44:10.415Z,5.53
2018-11-04T03:46:37.806Z,5.47
2018-11-04T03:49:05.326Z,11.60
2018-11-04T03:51:32.701Z,7.60
2018-11-04T03:54:00.035Z,5.07
2018-11-04T03:56:27.383Z,7.37
2018-11-04T03:58:54.704Z,6.73
2018-11-04T04:01:22.133Z,8.68
2018-11-04T04:03:49.454Z,6.60
2018-11-04T04:06:16.808Z,7.67
2018-11-04T04:08:44.130Z,4.73
2018-11-04T04:11:11.467Z,6.00
2018-11-04T04:13:38.819Z,5.23
2018-11-04T04:16:06.145Z,5.73
2018-11-04T04:18:33.531Z,6.20
2018-11-04T04:21:08.199Z,4.47
2018-11-04T04:23:35.882Z,6.47
2018-11-04T04:26:03.256Z,4.60
2018-11-04T04:28:30.703Z,5.10
2018-11-04T04:30:58.039Z,5.97
2018-11-04T04:33:25.444Z,5.80
2018-11-04T04:35:52.788Z,7.57
2018-11-04T04:38:20.255Z,5.97
2018-11-04T04:40:47.578Z,5.17
2018-11-04T04:43:14.929Z,6.20
2018-11-04T04:45:42.258Z,5.33
2018-11-04T04:48:09.653Z,4.43
2018-11-04T04:50:36.976Z,6.17
2018-11-04T04:53:04.442Z,6.07
2018-11-04T04:55:31.772Z,5.97
2018-11-04T04:57:59.135Z,10.03
2018-11-04T05:00:26.458Z,5.20
2018-11-04T05:02:53.810Z,4.90
2018-11-04T05:05:21.162Z,5.03
2018-11-04T05:07:48.514Z,4.37
2018-11-04T05:10:15.824Z,5.80
2018-11-04T05:12:43.175Z,9.40
2018-11-04T05:15:10.507Z,4.73
2018-11-04T05:17:37.944Z,4.97
2018-11-04T05:20:05.348Z,4.90
2018-11-04T05:22:32.702Z,4.70
2018-11-04T05:25:00.126Z,7.80
2018-11-04T05:27:27.484Z,7.43
2018-11-04T05:29:54.817Z,8.93
2018-11-04T05:32:22.170Z,5.58
2018-11-04T05:34:49.531Z,4.30
2018-11-04T05:37:16.863Z,4.97
2018-11-04T05:39:44.186Z,4.33
2018-11-04T05:42:11.542Z,5.77
2018-11-04T05:44:38.893Z,5.30
2018-11-04T05:47:06.445Z,4.00
2018-11-04T05:49:33.770Z,3.97
2018-11-04T05:52:01.163Z,4.60
2018-11-04T05:54:28.482Z,5.17
2018-11-04T05:56:55.817Z,6.43
2018-11-04T05:59:23.126Z,4.93
2018-11-04T06:01:50.489Z,4.80
2018-11-04T06:04:17.810Z,4.23
2018-11-04T06:06:45.146Z,6.30
2018-11-04T06:09:12.503Z,6.90
2018-11-04T06:11:39.918Z,3.90
2018-11-04T06:14:07.282Z,4.73
2018-11-04T06:16:34.610Z,7.07
2018-11-04T06:19:01.991Z,5.10
2018-11-04T06:21:29.321Z,4.50
2018-11-04T06:23:56.846Z,5.33
2018-11-04T06:26:24.162Z,5.93
2018-11-04T06:28:51.498Z,4.63
2018-11-04T06:31:18.818Z,5.50
2018-11-04T06:33:46.179Z,10.03
2018-11-04T06:36:13.517Z,6.63
2018-11-04T06:38:40.872Z,7.00
2018-11-04T06:41:08.300Z,4.73
2018-11-04T06:43:35.580Z,4.63
2018-11-04T06:46:02.912Z,4.27
2018-11-04T06:48:30.259Z,5.17
2018-11-04T06:50:57.593Z,4.43
2018-11-04T06:53:24.967Z,6.00
2018-11-04T06:55:52.305Z,11.63
2018-11-04T06:58:19.640Z,5.67
2018-11-04T07:00:46.960Z,6.00
2018-11-04T07:03:14.334Z,4.70
2018-11-04T07:05:41.659Z,5.17
2018-11-04T07:08:09.010Z,6.07
2018-11-04T07:10:36.535Z,5.50
2018-11-04T07:13:03.883Z,5.07
2018-11-04T07:15:31.209Z,4.77
2018-11-04T07:17:58.591Z,4.40
2018-11-04T07:20:25.918Z,7.60
2018-11-04T07:22:53.283Z,7.20
2018-11-04T07:25:20.616Z,4.87
2018-11-04T07:27:47.995Z,4.67
2018-11-04T07:30:15.315Z,4.33
2018-11-04T07:32:42.696Z,5.00
2018-11-04T07:35:10.678Z,4.00
2018-11-04T07:37:38.035Z,7.47
2018-11-04T07:40:05.995Z,7.10
2018-11-04T07:42:33.347Z,4.53
2018-11-04T07:45:00.671Z,5.20
2018-11-04T07:47:28.041Z,8.60
2018-11-04T07:49:55.358Z,4.03
2018-11-04T07:52:22.754Z,5.33
2018-11-04T07:54:50.081Z,8.77
2018-11-04T07:57:17.410Z,3.90
2018-11-04T07:59:44.778Z,4.20
2018-11-04T08:02:12.118Z,5.30
2018-11-04T08:04:39.460Z,3.30
2018-11-04T08:07:06.785Z,4.83
2018-11-04T08:09:34.161Z,3.60
2018-11-04T08:12:01.490Z,4.30
2018-11-04T08:14:28.863Z,5.50
2018-11-04T08:16:56.201Z,4.67
2018-11-04T08:19:23.620Z,5.17
2018-11-04T08:21:50.959Z,4.60
2018-11-04T08:24:18.399Z,10.10
2018-11-04T08:26:45.728Z,4.20
2018-11-04T08:29:13.071Z,4.33
2018-11-04T08:31:40.399Z,5.17
2018-11-04T08:34:07.746Z,4.10
2018-11-04T08:36:35.067Z,5.58
2018-11-04T08:39:02.465Z,5.00
2018-11-04T08:41:29.776Z,7.87
2018-11-04T08:43:57.117Z,3.80
2018-11-04T08:46:24.458Z,4.57
2018-11-04T08:48:51.812Z,5.33
2018-11-04T08:51:19.161Z,4.13
2018-11-04T08:53:46.531Z,4.40
2018-11-04T08:56:13.855Z,4.20
2018-11-04T08:58:41.206Z,3.70
2018-11-04T09:01:08.549Z,4.50
2018-11-04T09:03:35.903Z,3.20
2018-11-04T09:06:03.244Z,8.83
2018-11-04T09:08:30.594Z,4.73
2018-11-04T09:10:57.923Z,6.23
2018-11-04T09:13:25.279Z,3.60
2018-11-04T09:15:52.617Z,4.17
2018-11-04T09:18:19.953Z,4.67
2018-11-04T09:20:47.300Z,5.57
2018-11-04T09:23:14.635Z,5.47
2018-11-04T09:25:41.982Z,4.27
2018-11-04T09:28:09.304Z,4.30
2018-11-04T09:30:36.666Z,5.67
2018-11-04T09:33:04.007Z,5.97
2018-11-04T09:35:31.444Z,5.40
2018-11-04T09:37:58.719Z,5.07
2018-11-04T09:40:26.065Z,7.00
2018-11-04T09:42:53.393Z,7.03
2018-11-04T09:45:20.765Z,11.17
2018-11-04T09:47:48.099Z,6.87
2018-11-04T09:50:15.470Z,5.17
2018-11-04T09:52:42.822Z,7.30
2018-11-04T09:55:11.611Z,7.83
2018-11-04T09:57:39.444Z,8.13
2018-11-04T10:00:07.503Z,7.07
2018-11-04T10:02:34.854Z,8.93
2018-11-04T10:05:02.226Z,7.90
2018-11-04T10:07:29.562Z,5.30
2018-11-04T10:09:57.355Z,6.53
2018-11-04T10:12:24.754Z,11.00
2018-11-04T10:14:52.138Z,6.27
2018-11-04T10:17:19.460Z,7.80
2018-11-04T10:19:46.985Z,9.60
2018-11-04T10:22:14.155Z,7.92
2018-11-04T10:24:41.495Z,9.77
2018-11-04T10:27:08.822Z,5.70
2018-11-04T10:29:36.198Z,7.23
2018-11-04T10:32:03.542Z,13.80
2018-11-04T10:34:30.881Z,5.30
2018-11-04T10:36:58.361Z,4.50
2018-11-04T10:39:25.763Z,4.23
2018-11-04T10:41:53.255Z,5.07
2018-11-04T10:44:20.635Z,4.60
2018-11-04T10:46:48.028Z,10.70
2018-11-04T10:49:16.052Z,6.40
2018-11-04T10:51:43.411Z,8.57
2018-11-04T10:54:10.728Z,6.23
2018-11-04T10:56:38.074Z,10.30
2018-11-04T10:59:05.677Z,7.30
2018-11-04T11:01:33.022Z,6.60
2018-11-04T11:04:00.360Z,9.20
2018-11-04T11:06:27.726Z,15.03
2018-11-04T11:08:55.082Z,10.37
2018-11-04T11:11:22.436Z,14.13
2018-11-04T11:13:49.757Z,23.67
2018-11-04T11:16:17.122Z,13.15
2018-11-04T11:18:44.455Z,24.53
2018-11-04T11:21:11.803Z,17.27
2018-11-04T11:23:39.116Z,25.80
2018-11-04T11:26:06.479Z,18.67
2018-11-04T11:28:33.980Z,36.17
2018-11-04T11:31:01.352Z,28.83
2018-11-04T11:33:28.866Z,27.20
2018-11-04T11:35:56.505Z,36.80
2018-11-04T11:38:23.841Z,43.77
2018-11-04T11:40:51.213Z,44.07
2018-11-04T11:43:18.539Z,49.07
2018-11-04T11:45:45.910Z,46.17
2018-11-04T11:48:13.233Z,56.47
2018-11-04T11:50:40.576Z,51.90
2018-11-04T11:53:07.970Z,48.73
2018-11-04T11:55:35.370Z,48.30
2018-11-04T11:58:02.743Z,50.87
2018-11-04T12:00:30.086Z,47.87
2018-11-04T12:02:57.464Z,46.47
2018-11-04T12:05:24.802Z,60.20
2018-11-04T12:07:52.428Z,64.13
2018-11-04T12:10:19.777Z,51.58
2018-11-04T12:12:47.129Z,63.57
2018-11-04T12:15:14.636Z,71.13
2018-11-04T12:17:42.261Z,66.63
2018-11-04T12:20:10.192Z,52.30
2018-11-04T12:22:37.566Z,62.30
2018-11-04T12:25:05.430Z,64.63
2018-11-04T12:27:32.898Z,62.00
2018-11-04T12:30:00.316Z,61.67
2018-11-04T12:32:27.691Z,54.13
2018-11-04T12:34:55.158Z,60.43
2018-11-04T12:37:22.549Z,62.17
2018-11-04T12:39:49.883Z,52.03
2018-11-04T12:42:17.277Z,55.77
2018-11-04T12:44:45.743Z,55.70
2018-11-04T12:47:13.304Z,53.67
2018-11-04T12:49:40.682Z,51.00
2018-11-04T12:52:09.483Z,50.40
2018-11-04T12:54:37.266Z,57.83
2018-11-04T12:57:05.019Z,46.57
2018-11-04T12:59:32.428Z,42.13
2018-11-04T13:02:00.051Z,32.27
2018-11-04T13:04:27.567Z,43.83
2018-11-04T13:06:55.015Z,31.27
2018-11-04T13:09:22.372Z,33.40
2018-11-04T13:11:49.746Z,31.97
2018-11-04T13:14:17.103Z,45.37
2018-11-04T13:16:44.459Z,34.55
2018-11-04T13:19:11.899Z,30.67
2018-11-04T13:21:39.259Z,32.63
2018-11-04T13:24:06.613Z,37.27
2018-11-04T13:26:33.976Z,34.27
2018-11-04T13:29:01.343Z,25.30
2018-11-04T13:31:28.680Z,31.03
2018-11-04T13:33:56.031Z,25.30
2018-11-04T13:36:23.374Z,27.40
2018-11-04T13:38:50.760Z,22.90
2018-11-04T13:41:18.119Z,24.10
2018-11-04T13:43:45.474Z,23.47
2018-11-04T13:46:12.859Z,22.83
2018-11-04T13:48:40.211Z,27.30
2018-11-04T13:51:07.872Z,22.07
2018-11-04T13:53:35.305Z,29.20
2018-11-04T13:56:02.819Z,24.20
2018-11-04T13:58:30.417Z,18.10
2018-11-04T14:00:57.919Z,25.87
2018-11-04T14:03:25.648Z,21.13
2018-11-04T14:05:53.163Z,20.17
2018-11-04T14:08:20.570Z,18.10
2018-11-04T14:10:47.904Z,22.07
2018-11-04T14:13:15.349Z,15.43
2018-11-04T14:15:42.686Z,13.17
2018-11-04T14:18:10.041Z,18.13
2018-11-04T14:20:37.387Z,21.53
2018-11-04T14:23:05.188Z,20.20
2018-11-04T14:25:32.591Z,13.30
2018-11-04T14:27:59.945Z,14.80
2018-11-04T14:30:27.356Z,12.13
2018-11-04T14:32:55.201Z,16.67
2018-11-04T14:35:22.611Z,11.93
2018-11-04T14:37:50.351Z,17.77
2018-11-04T14:40:18.127Z,11.40
2018-11-04T14:42:46.304Z,11.67
2018-11-04T14:45:13.861Z,11.10
2018-11-04T14:47:41.379Z,12.10
2018-11-04T14:50:09.795Z,12.37
2018-11-04T14:52:37.234Z,11.13
2018-11-04T14:55:05.117Z,10.70
2018-11-04T14:57:32.502Z,15.20
2018-11-04T14:59:59.871Z,9.47
2018-11-04T15:02:27.299Z,14.57
2018-11-04T15:04:55.997Z,11.27
2018-11-04T15:07:23.489Z,16.10
2018-11-04T15:09:50.890Z,9.37
2018-11-04T15:12:18.263Z,9.50
2018-11-04T15:14:45.656Z,10.20
2018-11-04T15:17:12.985Z,9.40
2018-11-04T15:19:40.388Z,9.60
2018-11-04T15:22:07.758Z,7.23
2018-11-04T15:24:35.154Z,10.40
2018-11-04T15:27:02.523Z,16.57
2018-11-04T15:29:30.111Z,11.37
2018-11-04T15:31:57.546Z,12.90
2018-11-04T15:34:25.145Z,8.63
2018-11-04T15:36:52.710Z,8.27
2018-11-04T15:39:20.787Z,8.63
2018-11-04T15:41:48.241Z,9.37
2018-11-04T15:44:15.798Z,12.50
2018-11-04T15:46:43.488Z,8.43
2018-11-04T15:49:11.454Z,9.30
2018-11-04T15:51:39.474Z,7.67
2018-11-04T15:54:07.135Z,9.93
2018-11-04T15:56:34.737Z,7.83
2018-11-04T15:59:02.412Z,7.10
2018-11-04T16:01:30.144Z,5.40
2018-11-04T16:03:57.594Z,8.43
2018-11-04T16:06:24.984Z,8.60
2018-11-04T16:08:52.425Z,6.23
2018-11-04T16:11:19.778Z,7.07
2018-11-04T16:13:47.222Z,8.13
2018-11-04T16:16:14.840Z,6.83
2018-11-04T16:18:43.894Z,5.33
2018-11-04T16:21:14.382Z,6.57
2018-11-04T16:23:42.131Z,4.20
2018-11-04T16:26:09.539Z,10.47
2018-11-04T16:28:36.964Z,8.70
2018-11-04T16:31:04.515Z,7.10
2018-11-04T16:33:32.341Z,12.43
2018-11-04T16:36:00.539Z,4.60
2018-11-04T16:38:28.714Z,8.70
2018-11-04T16:40:58.793Z,7.47
2018-11-04T16:43:27.549Z,5.13
2018-11-04T16:45:55.883Z,9.93
2018-11-04T16:48:24.411Z,5.30
2018-11-04T16:50:52.554Z,6.90
2018-11-04T16:53:20.657Z,6.17
2018-11-04T16:55:48.884Z,4.40
2018-11-04T16:58:17.602Z,6.37
2018-11-04T17:00:45.879Z,6.00
2018-11-04T17:03:14.284Z,4.63
2018-11-04T17:05:42.753Z,6.03
2018-11-04T17:08:10.713Z,18.50
2018-11-04T17:10:38.954Z,92.00
2018-11-04T17:13:09.307Z,99.70
2018-11-04T17:15:37.469Z,83.10
2018-11-04T17:18:05.819Z,66.87
2018-11-04T17:20:33.977Z,48.57
2018-11-04T17:23:02.128Z,57.27
2018-11-04T17:25:30.333Z,51.80
2018-11-04T17:27:58.754Z,57.03
2018-11-04T17:30:27.089Z,49.60
2018-11-04T17:32:55.239Z,47.50
2018-11-04T17:35:24.236Z,44.20
2018-11-04T17:37:52.805Z,29.37
2018-11-04T17:40:21.383Z,49.47
2018-11-04T17:42:49.822Z,34.77
2018-11-04T17:45:18.721Z,34.27
2018-11-04T17:47:47.813Z,38.13
2018-11-04T17:50:19.484Z,44.33
2018-11-04T17:52:48.181Z,34.20
2018-11-04T17:55:16.874Z,45.60
2018-11-04T17:57:45.668Z,31.87
2018-11-04T18:00:15.722Z,38.60
2018-11-04T18:02:44.436Z,29.43
2018-11-04T18:05:13.593Z,29.83
2018-11-04T18:07:42.735Z,35.87
2018-11-04T18:10:11.520Z,41.00
2018-11-04T18:12:39.639Z,28.63
2018-11-04T18:15:07.974Z,24.37
2018-11-04T18:17:36.301Z,29.60
2018-11-04T18:20:06.387Z,24.25
2018-11-04T18:22:34.520Z,30.93
2018-11-04T18:25:02.662Z,25.63
2018-11-04T18:27:30.879Z,27.67
2018-11-04T18:29:59.099Z,21.90
2018-11-04T18:32:26.567Z,43.90
2018-11-04T18:34:53.947Z,23.80
2018-11-04T18:37:21.306Z,22.30
2018-11-04T18:39:48.694Z,21.00
2018-11-04T18:42:16.039Z,28.23
2018-11-04T18:44:43.405Z,21.07
2018-11-04T18:47:10.770Z,17.97
2018-11-04T18:49:38.138Z,33.10
2018-11-04T18:52:05.891Z,22.50
2018-11-04T18:54:33.275Z,19.90
2018-11-04T18:57:00.672Z,23.67
2018-11-04T18:59:28.058Z,17.60
2018-11-04T19:01:55.455Z,25.57
2018-11-04T19:04:22.823Z,13.57
2018-11-04T19:06:50.192Z,18.77
2018-11-04T19:09:17.564Z,16.40
2018-11-04T19:11:45.028Z,14.90
2018-11-04T19:14:12.333Z,15.43
2018-11-04T19:16:39.696Z,15.10
2018-11-04T19:19:07.122Z,12.53
2018-11-04T19:21:34.498Z,13.03
2018-11-04T19:24:01.859Z,22.73
2018-11-04T19:26:29.245Z,16.33
2018-11-04T19:28:56.621Z,16.20
2018-11-04T19:31:24.184Z,19.93
2018-11-04T19:33:51.599Z,16.93
2018-11-04T19:36:18.960Z,13.17
2018-11-04T19:38:46.302Z,13.13
2018-11-04T19:41:13.778Z,11.77
2018-11-04T19:43:41.279Z,12.70
2018-11-04T19:46:08.653Z,8.90
2018-11-04T19:48:36.070Z,9.90
2018-11-04T19:51:03.588Z,8.63
2018-11-04T19:53:31.387Z,10.47
2018-11-04T19:55:58.770Z,26.57
2018-11-04T19:58:26.126Z,11.73
2018-11-04T20:00:53.497Z,13.97
2018-11-04T20:03:20.827Z,17.57
2018-11-04T20:05:48.204Z,12.77
2018-11-04T20:08:15.586Z,10.40
2018-11-04T20:10:43.036Z,7.87
2018-11-04T20:13:15.646Z,8.03
2018-11-04T20:15:43.015Z,9.50
2018-11-04T20:18:15.651Z,10.60
2018-11-04T20:20:43.044Z,6.90
2018-11-04T20:23:10.424Z,9.90
2018-11-04T20:25:43.261Z,10.90
2018-11-04T20:28:10.730Z,11.60
2018-11-04T20:30:38.123Z,7.03
2018-11-04T20:33:07.372Z,9.17
2018-11-04T20:35:34.780Z,9.90
2018-11-04T20:38:03.049Z,8.57
2018-11-04T20:40:35.735Z,11.53
2018-11-04T20:43:03.396Z,9.87
2018-11-04T20:45:30.880Z,9.20
2018-11-04T20:48:03.626Z,10.90
2018-11-04T20:50:36.507Z,10.90
2018-11-04T20:53:04.063Z,9.37
2018-11-04T20:55:36.909Z,10.80
2018-11-04T20:58:04.665Z,31.07
2018-11-04T21:00:31.991Z,9.90
2018-11-04T21:02:59.336Z,9.67
2018-11-04T21:05:26.708Z,6.70
2018-11-04T21:07:54.241Z,6.70
2018-11-04T21:10:22.485Z,8.10
2018-11-04T21:12:49.902Z,10.70
2018-11-04T21:15:17.293Z,10.93
2018-11-04T21:17:44.713Z,8.40
2018-11-04T21:20:12.111Z,8.53
2018-11-04T21:22:39.599Z,13.00
2018-11-04T21:25:07.255Z,9.90
2018-11-04T21:27:34.620Z,8.97
2018-11-04T21:30:01.981Z,9.23
2018-11-04T21:32:29.334Z,7.60
2018-11-04T21:34:57.171Z,8.80
2018-11-04T21:37:24.959Z,10.93
2018-11-04T21:39:52.766Z,6.67
2018-11-04T21:42:20.171Z,6.40
2018-11-04T21:44:47.613Z,8.00
2018-11-04T21:47:14.968Z,7.33
2018-11-04T21:49:42.318Z,12.27
2018-11-04T21:52:09.814Z,10.43
2018-11-04T21:54:37.322Z,7.70
2018-11-04T21:57:05.007Z,9.77
2018-11-04T21:59:32.499Z,12.00
2018-11-04T22:01:59.936Z,6.23
2018-11-04T22:04:27.450Z,8.78
2018-11-04T22:06:55.841Z,7.07
2018-11-04T22:09:23.948Z,12.23
2018-11-04T22:11:51.525Z,10.90
2018-11-04T22:14:18.995Z,7.00
2018-11-04T22:16:46.429Z,7.30
2018-11-04T22:19:13.788Z,8.98
2018-11-04T22:21:41.206Z,8.70
2018-11-04T22:24:08.601Z,8.60
2018-11-04T22:26:35.987Z,6.17
2018-11-04T22:29:03.322Z,8.63
2018-11-04T22:31:30.697Z,8.27
2018-11-04T22:33:58.078Z,17.33
2018-11-04T22:36:25.478Z,5.27
2018-11-04T22:38:52.823Z,16.90
2018-11-04T22:41:20.336Z,7.50
2018-11-04T22:43:47.705Z,5.83
2018-11-04T22:46:15.076Z,7.00
2018-11-04T22:48:42.494Z,7.00
2018-11-04T22:51:09.923Z,10.17
2018-11-04T22:53:37.290Z,6.93
2018-11-04T22:56:04.786Z,6.57
2018-11-04T22:58:32.139Z,8.53
2018-11-04T23:01:00.946Z,5.90
2018-11-04T23:03:28.439Z,6.43
2018-11-04T23:05:55.941Z,5.93
2018-11-04T23:08:23.285Z,5.50
2018-11-04T23:10:50.741Z,10.30
2018-11-04T23:13:18.355Z,10.03
2018-11-04T23:15:46.084Z,8.80
2018-11-04T23:18:13.653Z,6.30
2018-11-04T23:20:41.059Z,7.43
2018-11-04T23:23:09.143Z,9.43
2018-11-04T23:25:37.157Z,7.83
2018-11-04T23:28:07.507Z,9.50
2018-11-04T23:30:35.570Z,7.60
2018-11-04T23:33:03.472Z,6.67
2018-11-04T23:35:32.394Z,6.07
2018-11-04T23:38:01.042Z,5.00
2018-11-04T23:40:28.784Z,7.60
2018-11-04T23:42:56.989Z,7.47
2018-11-04T23:45:25.878Z,7.97
2018-11-04T23:47:53.632Z,7.93
2018-11-04T23:50:22.174Z,6.53
2018-11-04T23:52:50.740Z,4.23
2018-11-04T23:55:19.160Z,5.57
2018-11-04T23:57:47.294Z,5.53
